Latest Coastal Weather Observations for Maningrida Airport

IDD60701

Issued at 7:45 pm CST Sunday 31 August 2014 (issued every 10 minutes, with the page automatically refreshed every 10 minutes)

About coastal observations | Map of coastal stations | Coastal observations for NT | Marine services | Other Formats
Station Details ID: 014405 Name: MANINGRIDA AIRPORT Lat: -12.06 Lon: 134.23 Height: 28.1 m
Data from the previous 72 hours. | See also: Recent months at Maningrida Airport
Date/Time
CST
Temp

°C
Wind Pressure Rain
since 9am
mm
Weather Cloud Vis
km
Sea
Height
m
Swell
Dir
 
Speed
knots
Gust
knots
hPa Trend Height
m
Period
s
Dir
31/07:30pm 24.1 ENE 5 6 1011.2 - 0.0 - - 10 - - - -
31/07:00pm 24.6 ENE 5 6 1010.7 - 0.0 - - 10 - - - -
31/06:30pm 25.3 ENE 5 6 1010.3 - 0.0 - - 10 - - - -
31/06:00pm 26.1 ENE 7 10 1010.0 - 0.0 - - 10 - - - -
31/05:30pm 26.9 ENE 7 12 1009.9 - 0.0 - - 10 - - - -
31/05:00pm 27.7 ENE 8 11 1009.8 - 0.0 - - 10 - - - -
31/04:30pm 27.8 NE 9 14 1009.8 - 0.0 - - 10 - - - -
31/04:00pm 28.1 NE 10 19 1009.7 - 0.0 - - 10 - - - -
31/03:30pm 28.8 ENE 11 14 1009.6 - 0.0 - - 10 - - - -
31/03:00pm 28.7 ENE 11 15 1009.5 - 0.0 - - 10 - - - -
31/02:30pm 29.3 ENE 10 15 1010.1 - 0.0 - - 10 - - - -
31/02:00pm 28.5 ENE 11 17 1010.4 - 0.0 - - 10 - - - -
31/01:30pm 28.6 NE 10 14 1010.8 - 0.0 - - 10 - - - -
31/01:00pm 29.8 NE 10 15 1011.1 - 0.0 - - 10 - - - -
31/12:30pm 31.5 E 12 18 1011.6 - 0.0 - - 10 - - - -
31/12:00pm 31.3 SE 11 16 1012.0 - 0.0 - - 10 - - - -
31/11:30am 30.2 ESE 14 20 1012.7 - 0.0 - - 10 - - - -
31/11:00am 29.3 ESE 11 19 1013.4 - 0.0 - - 10 - - - -
31/10:30am 28.3 ESE 13 17 1013.9 - 0.0 - - 10 - - - -
31/10:00am 26.6 SE 10 16 1014.3 - 0.0 - - 10 - - - -
31/09:30am 24.6 ESE 5 7 1014.5 - 0.0 - - 10 - - - -
31/09:00am 22.6 SSE 4 5 1014.5 - 0.0 - - 10 - - - -
31/08:30am 20.0 S 5 7 1014.2 - 0.0 - - 10 - - - -
31/08:00am 18.6 S 5 7 1014.0 - 0.0 - - 10 - - - -
31/07:30am 17.0 S 4 7 1014.0 - 0.0 - - 10 - - - -
31/07:00am 15.0 S 5 7 1013.4 - 0.0 - - 10 - - - -
31/06:30am 14.1 S 4 6 1013.3 - 0.0 - - 10 - - - -
31/06:00am 13.9 S 4 5 1012.9 - 0.0 - - 10 - - - -
31/05:30am 14.6 S 5 7 1012.9 - 0.0 - - 10 - - - -
31/05:00am 15.1 S 5 7 1012.7 - 0.0 - - 10 - - - -
31/04:30am 14.9 S 5 6 1012.7 - 0.0 - - 10 - - - -
31/04:00am 15.4 S 4 5 1012.8 - 0.0 - - 10 - - - -
31/03:30am 16.7 S 3 4 1012.7 - 0.0 - - 10 - - - -
31/03:00am 18.3 SE 6 8 1012.6 - 0.0 - - 10 - - - -
31/02:30am 19.8 ESE 7 12 1012.7 - 0.0 - - 10 - - - -
31/02:00am 20.2 E 7 9 1012.9 - 0.0 - - 10 - - - -
31/01:30am 19.9 ESE 6 8 1013.0 - 0.0 - - 10 - - - -
31/01:00am 19.4 ESE 5 6 1013.1 - 0.0 - - 10 - - - -
31/12:30am 20.2 ESE 6 7 1013.4 - 0.0 - - 10 - - - -
31/12:00am 20.8 ESE 6 7 1013.4 - 0.0 - - 10 - - - -
 
Date/Time
CST
Temp

°C
Wind Pressure Rain
since 9am
mm
Weather Cloud Vis
km
Sea
Height
m
Swell
Dir
 
Speed
knots
Gust
knots
hPa Trend Height
m
Period
s
Dir
30/11:57pm 20.9 ESE 6 7 1013.5 - 0.0 - - 8 - - - -
30/11:30pm 19.8 ESE 3 4 1013.6 - 0.0 - - 5 - - - -
30/11:23pm 20.0 ESE 3 4 1013.7 - 0.0 - - 5 - - - -
30/11:00pm 20.6 ESE 5 7 1013.6 - 0.0 - - 7 - - - -
30/10:49pm 20.6 SE 4 5 1013.6 - 0.0 - - 6 - - - -
30/10:30pm 21.0 SE 5 6 1013.6 - 0.0 - - 5 - - - -
30/10:27pm 21.1 SE 5 6 1013.5 - 0.0 - - 5 - - - -
30/10:00pm 22.1 SE 5 6 1013.6 - 0.0 - - 10 - - - -
30/09:30pm 22.5 SE 6 8 1013.4 - 0.0 - - 10 - - - -
30/09:00pm 22.5 ESE 5 7 1013.1 - 0.0 - - 10 - - - -
30/08:30pm 22.5 E 4 5 1012.8 - 0.0 - - 10 - - - -
30/08:00pm 23.0 E 4 5 1012.3 - 0.0 - - 10 - - - -
30/07:30pm 23.5 E 4 5 1011.9 - 0.0 - - 10 - - - -
30/07:00pm 24.2 ENE 4 6 1011.8 - 0.0 - - 10 - - - -
30/06:30pm 24.9 ENE 5 8 1011.3 - 0.0 - - 10 - - - -
30/06:00pm 25.9 ENE 8 12 1010.8 - 0.0 - - 10 - - - -
30/05:30pm 26.8 ENE 8 14 1010.6 - 0.0 - - 10 - - - -
30/05:00pm 27.1 NE 12 17 1010.4 - 0.0 - - 10 - - - -
30/04:30pm 28.0 ENE 11 16 1010.4 - 0.0 - - 10 - - - -
30/04:00pm 28.0 NE 14 18 1010.3 - 0.0 - - 10 - - - -
30/03:30pm 28.4 ENE 13 19 1010.5 - 0.0 - - 10 - - - -
30/03:00pm 28.9 ENE 12 17 1010.5 - 0.0 - - 10 - - - -
30/02:30pm 28.8 ENE 13 17 1011.0 - 0.0 - - 10 - - - -
30/02:00pm 28.5 ENE 11 18 1011.4 - 0.0 - - 10 - - - -
30/01:30pm 29.5 NNE 10 15 1011.7 - 0.0 - - 10 - - - -
30/01:00pm 32.1 ESE 11 16 1012.2 - 0.0 - - 10 - - - -
30/12:30pm 31.3 SE 11 19 1012.8 - 0.0 - - 10 - - - -
30/12:00pm 31.0 ESE 11 16 1013.4 - 0.0 - - 10 - - - -
30/11:30am 30.3 SSE 10 15 1014.3 - 0.0 - - 10 - - - -
30/11:00am 29.9 SE 9 15 1014.8 - 0.0 - - 10 - - - -
30/10:30am 29.0 SE 10 15 1015.1 - 0.0 - - 10 - - - -
30/10:00am 27.4 ESE 8 13 1015.5 - 0.0 - - 10 - - - -
30/09:30am 25.4 SE 8 11 1015.5 - 0.0 - - 10 - - - -
30/09:00am 23.9 SSE 6 9 1015.4 - 0.0 - - 10 - - - -
30/08:30am 21.2 S 6 8 1015.5 - 0.0 - - 10 - - - -
30/08:00am 19.1 S 4 6 1015.2 - 0.0 - - 10 - - - -
30/07:30am 17.1 S 4 6 1014.8 - 0.0 - - 10 - - - -
30/07:00am 15.6 S 5 6 1014.6 - 0.0 - - 10 - - - -
30/06:30am 15.7 S 5 7 1014.2 - 0.0 - - 10 - - - -
30/06:00am 16.1 S 5 7 1013.7 - 0.0 - - 10 - - - -
30/05:30am 14.9 S 3 4 1013.5 - 0.0 - - 10 - - - -
30/05:00am 15.3 S 4 5 1013.2 - 0.0 - - 9 - - - -
30/04:30am 15.4 S 5 6 1013.3 - 0.0 - - 9 - - - -
30/04:00am 15.0 S 4 5 1013.3 - 0.0 - - 8 - - - -
30/03:31am 15.4 SSE 4 4 1013.2 - 0.0 - - 7 - - - -
30/03:30am 15.4 SE 4 4 1013.2 - 0.0 - - 7 - - - -
30/03:13am 15.7 SE 3 3 1013.3 - 0.0 - - 5 - - - -
30/03:00am 15.9 SE 3 3 1013.3 - 0.0 - - 8 - - - -
30/02:30am 16.6 SE 3 4 1013.5 - 0.0 - - 8 - - - -
30/02:00am 17.0 ESE 3 4 1013.7 - 0.0 - - 8 - - - -
30/01:43am 17.4 CALM 0 0 1013.8 - 0.0 - - 5 - - - -
30/01:30am 17.6 CALM 0 0 1013.9 - 0.0 - - 9 - - - -
30/01:00am 18.4 CALM 0 0 1013.9 - 0.0 - - 10 - - - -
30/12:30am 19.5 CALM 0 1 1013.9 - 0.0 - - 10 - - - -
30/12:00am 20.5 ESE 3 4 1014.0 - 0.0 - - 10 - - - -
 
Date/Time
CST
Temp

°C
Wind Pressure Rain
since 9am
mm
Weather Cloud Vis
km
Sea
Height
m
Swell
Dir
 
Speed
knots
Gust
knots
hPa Trend Height
m
Period
s
Dir
29/11:30pm 21.3 ESE 4 6 1014.2 - 0.0 - - 10 - - - -
29/11:00pm 21.7 ESE 5 6 1014.2 - 0.0 - - 10 - - - -
29/10:30pm 21.6 ESE 4 5 1013.9 - 0.0 - - 10 - - - -
29/10:00pm 21.3 SE 5 6 1013.8 - 0.0 - - 10 - - - -
29/09:30pm 22.0 ESE 5 6 1013.6 - 0.0 - - 10 - - - -
29/09:10pm 22.1 E 4 6 1013.4 - 0.0 - - 6 - - - -
29/09:00pm 22.2 ESE 5 6 1013.2 - 0.0 - - 5 - - - -
29/08:30pm 22.5 E 4 5 1013.0 - 0.0 - - 5 - - - -
29/08:00pm 23.0 E 4 5 1013.0 - 0.0 - - 10 - - - -
29/07:30pm 23.5 E 4 5 1013.0 - 0.0 - - 10 - - - -
29/07:00pm 24.3 E 5 6 1012.7 - 0.0 - - 10 - - - -
29/06:30pm 25.2 ENE 5 8 1012.1 - 0.0 - - 10 - - - -
29/06:00pm 26.2 ENE 6 9 1011.8 - 0.0 - - 10 - - - -
29/05:30pm 26.8 ENE 8 12 1011.5 - 0.0 - - 10 - - - -
29/05:00pm 27.1 ENE 8 13 1011.4 - 0.0 - - 10 - - - -
29/04:30pm 27.2 ENE 9 14 1011.4 - 0.0 - - 10 - - - -
29/04:00pm 28.2 NE 10 15 1011.3 - 0.0 - - 10 - - - -
29/03:30pm 28.6 NE 10 14 1011.3 - 0.0 - - 10 - - - -
29/03:00pm 29.0 NE 10 14 1011.3 - 0.0 - - 10 - - - -
29/02:30pm 28.2 NE 10 15 1011.7 - 0.0 - - 10 - - - -
29/02:00pm 30.1 ENE 10 13 1012.0 - 0.0 - - 10 - - - -
29/01:30pm 30.8 NE 11 15 1012.4 - 0.0 - - 10 - - - -
29/01:00pm 31.3 NE 11 17 1012.9 - 0.0 - - 10 - - - -
29/12:30pm 30.8 E 8 14 1013.3 - 0.0 - - 10 - - - -
29/12:00pm 29.6 E 10 18 1013.7 - 0.0 - - 10 - - - -
29/11:30am 30.2 SE 12 18 1014.3 - 0.0 - - 10 - - - -
29/11:00am 29.9 ESE 10 18 1014.7 - 0.0 - - 10 - - - -
29/10:30am 28.6 ESE 12 17 1015.0 - 0.0 - - 10 - - - -
29/10:00am 27.7 SE 15 21 1015.3 - 0.0 - - 10 - - - -
29/09:30am 27.1 SE 11 15 1015.2 - 0.0 - - 10 - - - -
29/09:00am 24.9 SSE 10 13 1015.0 - 0.0 - - 10 - - - -
29/08:30am 23.5 SE 9 12 1014.9 - 0.0 - - 10 - - - -
29/08:00am 21.2 SSE 9 12 1014.7 - 0.0 - - 10 - - - -
29/07:30am 17.8 SSE 6 7 1014.7 - 0.0 - - 10 - - - -
29/07:00am 16.1 S 6 8 1014.5 - 0.0 - - 10 - - - -
29/06:30am 15.3 S 6 8 1014.4 - 0.0 - - 10 - - - -
29/06:00am 14.9 SSE 5 5 1014.0 - 0.0 - - 10 - - - -
29/05:30am 15.4 SE 4 5 1013.9 - 0.0 - - 10 - - - -
29/05:00am 15.5 SSE 4 4 1013.7 - 0.0 - - 10 - - - -
29/04:30am 16.1 SE 3 4 1013.7 - 0.0 - - 10 - - - -
29/04:00am 17.7 ESE 4 5 1013.5 - 0.0 - - 10 - - - -
29/03:30am 18.5 SSE 7 9 1013.2 - 0.0 - - 10 - - - -
29/03:00am 19.5 SSE 9 12 1012.9 - 0.0 - - 10 - - - -
29/02:30am 18.9 SSE 8 10 1013.1 - 0.0 - - 10 - - - -
29/02:00am 20.1 SSE 8 10 1013.1 - 0.0 - - 10 - - - -
29/01:30am 20.5 SSE 8 11 1013.3 - 0.0 - - 10 - - - -
29/01:00am 20.8 SSE 7 8 1013.8 - 0.0 - - 10 - - - -
29/12:30am 20.9 SSE 7 9 1013.8 - 0.0 - - 10 - - - -
29/12:00am 22.0 SSE 9 12 1013.9 - 0.0 - - 10 - - - -
 
Date/Time
CST
Temp

°C
Wind Pressure Rain
since 9am
mm
Weather Cloud Vis
km
Sea
Height
m
Swell
Dir
 
Speed
knots
Gust
knots
hPa Trend Height
m
Period
s
Dir
28/11:30pm 22.2 SE 10 12 1014.2 - 0.0 - - 10 - - - -
28/11:00pm 23.3 SE 11 14 1014.0 - 0.0 - - 10 - - - -
28/10:30pm 24.0 SE 10 15 1014.2 - 0.0 - - 10 - - - -
28/10:00pm 24.0 ESE 10 13 1014.0 - 0.0 - - 10 - - - -
28/09:30pm 24.3 ESE 9 12 1014.1 - 0.0 - - 10 - - - -
28/09:00pm 24.0 ESE 9 11 1013.7 - 0.0 - - 10 - - - -
28/08:30pm 22.6 ESE 5 7 1013.6 - 0.0 - - 10 - - - -
28/08:00pm 22.3 ESE 4 5 1013.1 - 0.0 - - 10 - - - -

Other Formats:

Comma delimited format used in spreadsheet applications
http://www.bom.gov.au/fwo/IDD60701/IDD60701.95142.axf

JavaScript Object Notation format (JSON) in row-major order
http://www.bom.gov.au/fwo/IDD60701/IDD60701.95142.json